sensor_id;sensor_type;location;lat;lon;timestamp;P1;durP1;ratioP1;P2;durP2;ratioP2
41865;SDS011;27539;43.222;27.558;2023-12-29T00:01:56;6.07;;;4.90;;
41865;SDS011;27539;43.222;27.558;2023-12-29T00:04:21;9.80;;;5.10;;
41865;SDS011;27539;43.222;27.558;2023-12-29T00:06:47;5.77;;;5.07;;
41865;SDS011;27539;43.222;27.558;2023-12-29T00:09:14;6.43;;;5.20;;
41865;SDS011;27539;43.222;27.558;2023-12-29T00:11:39;8.25;;;5.72;;
41865;SDS011;27539;43.222;27.558;2023-12-29T00:14:05;6.40;;;4.53;;
41865;SDS011;27539;43.222;27.558;2023-12-29T00:16:31;6.50;;;4.73;;
41865;SDS011;27539;43.222;27.558;2023-12-29T00:18:56;6.40;;;5.07;;
41865;SDS011;27539;43.222;27.558;2023-12-29T00:21:22;6.27;;;4.60;;
41865;SDS011;27539;43.222;27.558;2023-12-29T00:23:47;7.57;;;4.80;;
41865;SDS011;27539;43.222;27.558;2023-12-29T00:26:16;8.50;;;5.40;;
41865;SDS011;27539;43.222;27.558;2023-12-29T00:28:42;10.00;;;5.43;;
41865;SDS011;27539;43.222;27.558;2023-12-29T00:31:08;8.35;;;5.82;;
41865;SDS011;27539;43.222;27.558;2023-12-29T00:36:55;6.78;;;5.55;;
41865;SDS011;27539;43.222;27.558;2023-12-29T00:39:21;7.07;;;5.73;;
41865;SDS011;27539;43.222;27.558;2023-12-29T00:41:53;11.38;;;7.32;;
41865;SDS011;27539;43.222;27.558;2023-12-29T00:44:20;7.40;;;5.57;;
41865;SDS011;27539;43.222;27.558;2023-12-29T00:46:46;9.33;;;6.07;;
41865;SDS011;27539;43.222;27.558;2023-12-29T00:49:11;8.17;;;5.87;;
41865;SDS011;27539;43.222;27.558;2023-12-29T00:51:40;10.03;;;6.40;;
41865;SDS011;27539;43.222;27.558;2023-12-29T00:54:08;11.15;;;6.13;;
41865;SDS011;27539;43.222;27.558;2023-12-29T00:56:34;7.70;;;5.73;;
41865;SDS011;27539;43.222;27.558;2023-12-29T00:58:59;7.83;;;6.50;;
41865;SDS011;27539;43.222;27.558;2023-12-29T01:01:25;7.33;;;5.27;;
41865;SDS011;27539;43.222;27.558;2023-12-29T01:03:50;8.87;;;6.70;;
41865;SDS011;27539;43.222;27.558;2023-12-29T01:06:19;9.13;;;7.22;;
41865;SDS011;27539;43.222;27.558;2023-12-29T01:08:45;9.23;;;6.20;;
41865;SDS011;27539;43.222;27.558;2023-12-29T01:11:11;7.70;;;5.87;;
41865;SDS011;27539;43.222;27.558;2023-12-29T01:13:36;7.50;;;6.10;;
41865;SDS011;27539;43.222;27.558;2023-12-29T01:16:02;11.03;;;6.33;;
41865;SDS011;27539;43.222;27.558;2023-12-29T01:18:28;9.70;;;6.83;;
41865;SDS011;27539;43.222;27.558;2023-12-29T01:20:53;12.77;;;7.73;;
41865;SDS011;27539;43.222;27.558;2023-12-29T01:23:19;11.43;;;6.87;;
41865;SDS011;27539;43.222;27.558;2023-12-29T01:25:44;10.30;;;6.13;;
41865;SDS011;27539;43.222;27.558;2023-12-29T01:28:10;13.70;;;7.60;;
41865;SDS011;27539;43.222;27.558;2023-12-29T01:30:36;8.07;;;6.03;;
41865;SDS011;27539;43.222;27.558;2023-12-29T01:33:01;11.83;;;6.87;;
41865;SDS011;27539;43.222;27.558;2023-12-29T01:35:27;13.93;;;6.67;;
41865;SDS011;27539;43.222;27.558;2023-12-29T01:37:52;8.53;;;5.83;;
41865;SDS011;27539;43.222;27.558;2023-12-29T01:40:20;11.43;;;5.60;;
41865;SDS011;27539;43.222;27.558;2023-12-29T01:42:45;11.67;;;5.87;;
41865;SDS011;27539;43.222;27.558;2023-12-29T01:45:19;8.63;;;5.30;;
41865;SDS011;27539;43.222;27.558;2023-12-29T01:47:49;7.43;;;5.20;;
41865;SDS011;27539;43.222;27.558;2023-12-29T01:50:19;8.57;;;5.60;;
41865;SDS011;27539;43.222;27.558;2023-12-29T01:52:46;17.23;;;5.72;;
41865;SDS011;27539;43.222;27.558;2023-12-29T01:55:15;8.35;;;5.35;;
41865;SDS011;27539;43.222;27.558;2023-12-29T01:57:44;8.07;;;5.38;;
41865;SDS011;27539;43.222;27.558;2023-12-29T02:00:11;7.95;;;5.60;;
41865;SDS011;27539;43.222;27.558;2023-12-29T02:02:37;14.70;;;7.07;;
41865;SDS011;27539;43.222;27.558;2023-12-29T02:05:03;10.20;;;6.47;;
41865;SDS011;27539;43.222;27.558;2023-12-29T02:07:29;13.40;;;6.97;;
41865;SDS011;27539;43.222;27.558;2023-12-29T02:09:57;8.88;;;6.75;;
41865;SDS011;27539;43.222;27.558;2023-12-29T02:12:24;9.25;;;5.55;;
41865;SDS011;27539;43.222;27.558;2023-12-29T02:14:50;8.93;;;5.87;;
41865;SDS011;27539;43.222;27.558;2023-12-29T02:17:26;10.23;;;7.40;;
41865;SDS011;27539;43.222;27.558;2023-12-29T02:19:55;11.85;;;7.47;;
41865;SDS011;27539;43.222;27.558;2023-12-29T02:22:22;9.25;;;6.47;;
41865;SDS011;27539;43.222;27.558;2023-12-29T02:24:51;8.77;;;5.87;;
41865;SDS011;27539;43.222;27.558;2023-12-29T02:30:17;10.43;;;6.50;;
41865;SDS011;27539;43.222;27.558;2023-12-29T02:32:51;11.13;;;7.30;;
41865;SDS011;27539;43.222;27.558;2023-12-29T02:35:23;12.82;;;7.35;;
41865;SDS011;27539;43.222;27.558;2023-12-29T02:37:50;9.32;;;6.70;;
41865;SDS011;27539;43.222;27.558;2023-12-29T02:40:16;14.83;;;7.43;;
41865;SDS011;27539;43.222;27.558;2023-12-29T02:42:49;13.50;;;8.47;;
41865;SDS011;27539;43.222;27.558;2023-12-29T02:45:17;13.15;;;7.75;;
41865;SDS011;27539;43.222;27.558;2023-12-29T02:47:43;8.63;;;6.43;;
41865;SDS011;27539;43.222;27.558;2023-12-29T02:50:10;11.45;;;7.13;;
41865;SDS011;27539;43.222;27.558;2023-12-29T02:52:36;12.95;;;7.95;;
41865;SDS011;27539;43.222;27.558;2023-12-29T02:55:02;14.98;;;7.82;;
41865;SDS011;27539;43.222;27.558;2023-12-29T02:57:28;11.95;;;7.43;;
41865;SDS011;27539;43.222;27.558;2023-12-29T02:59:55;11.75;;;7.95;;
41865;SDS011;27539;43.222;27.558;2023-12-29T03:02:21;10.77;;;6.82;;
41865;SDS011;27539;43.222;27.558;2023-12-29T03:04:47;14.73;;;7.37;;
41865;SDS011;27539;43.222;27.558;2023-12-29T03:07:12;13.50;;;8.20;;
41865;SDS011;27539;43.222;27.558;2023-12-29T03:09:38;15.53;;;8.73;;
41865;SDS011;27539;43.222;27.558;2023-12-29T03:12:03;12.67;;;7.07;;
41865;SDS011;27539;43.222;27.558;2023-12-29T03:14:29;10.93;;;6.88;;
41865;SDS011;27539;43.222;27.558;2023-12-29T03:16:55;18.40;;;8.37;;
41865;SDS011;27539;43.222;27.558;2023-12-29T03:19:20;12.47;;;7.50;;
41865;SDS011;27539;43.222;27.558;2023-12-29T03:21:46;11.47;;;8.00;;
41865;SDS011;27539;43.222;27.558;2023-12-29T03:24:11;21.17;;;8.47;;
41865;SDS011;27539;43.222;27.558;2023-12-29T03:26:37;11.80;;;7.83;;
41865;SDS011;27539;43.222;27.558;2023-12-29T03:29:03;10.00;;;7.30;;
41865;SDS011;27539;43.222;27.558;2023-12-29T03:31:28;10.57;;;6.63;;
41865;SDS011;27539;43.222;27.558;2023-12-29T03:34:00;9.57;;;6.10;;
41865;SDS011;27539;43.222;27.558;2023-12-29T03:36:25;11.10;;;6.03;;
41865;SDS011;27539;43.222;27.558;2023-12-29T03:38:51;10.13;;;6.77;;
41865;SDS011;27539;43.222;27.558;2023-12-29T03:41:16;12.23;;;7.33;;
41865;SDS011;27539;43.222;27.558;2023-12-29T03:43:42;13.57;;;7.40;;
41865;SDS011;27539;43.222;27.558;2023-12-29T03:46:20;13.00;;;7.50;;
41865;SDS011;27539;43.222;27.558;2023-12-29T03:48:46;8.85;;;6.50;;
41865;SDS011;27539;43.222;27.558;2023-12-29T03:51:13;10.87;;;7.90;;
41865;SDS011;27539;43.222;27.558;2023-12-29T03:53:39;12.25;;;7.32;;
41865;SDS011;27539;43.222;27.558;2023-12-29T03:56:06;16.23;;;8.00;;
41865;SDS011;27539;43.222;27.558;2023-12-29T03:58:33;11.18;;;7.13;;
41865;SDS011;27539;43.222;27.558;2023-12-29T04:00:58;12.63;;;8.00;;
41865;SDS011;27539;43.222;27.558;2023-12-29T04:03:24;11.17;;;7.37;;
41865;SDS011;27539;43.222;27.558;2023-12-29T04:05:49;10.87;;;7.07;;
41865;SDS011;27539;43.222;27.558;2023-12-29T04:08:15;12.37;;;7.30;;
41865;SDS011;27539;43.222;27.558;2023-12-29T04:10:40;7.60;;;6.13;;
41865;SDS011;27539;43.222;27.558;2023-12-29T04:13:06;11.80;;;6.67;;
41865;SDS011;27539;43.222;27.558;2023-12-29T04:15:31;10.07;;;7.23;;
41865;SDS011;27539;43.222;27.558;2023-12-29T04:17:57;12.60;;;7.00;;
41865;SDS011;27539;43.222;27.558;2023-12-29T04:20:23;11.00;;;7.53;;
41865;SDS011;27539;43.222;27.558;2023-12-29T04:22:49;10.32;;;7.45;;
41865;SDS011;27539;43.222;27.558;2023-12-29T04:25:15;10.40;;;6.47;;
41865;SDS011;27539;43.222;27.558;2023-12-29T04:27:40;14.23;;;7.20;;
41865;SDS011;27539;43.222;27.558;2023-12-29T04:30:06;11.23;;;6.77;;
41865;SDS011;27539;43.222;27.558;2023-12-29T04:32:32;9.30;;;6.50;;
41865;SDS011;27539;43.222;27.558;2023-12-29T04:34:58;11.47;;;7.63;;
41865;SDS011;27539;43.222;27.558;2023-12-29T04:37:23;9.67;;;6.47;;
41865;SDS011;27539;43.222;27.558;2023-12-29T04:39:49;11.00;;;6.63;;
41865;SDS011;27539;43.222;27.558;2023-12-29T04:42:15;7.97;;;5.70;;
41865;SDS011;27539;43.222;27.558;2023-12-29T04:44:42;11.90;;;6.88;;
41865;SDS011;27539;43.222;27.558;2023-12-29T04:47:08;10.43;;;6.80;;
41865;SDS011;27539;43.222;27.558;2023-12-29T04:49:34;8.03;;;6.07;;
41865;SDS011;27539;43.222;27.558;2023-12-29T04:51:59;10.17;;;6.60;;
41865;SDS011;27539;43.222;27.558;2023-12-29T04:54:25;12.07;;;6.63;;
41865;SDS011;27539;43.222;27.558;2023-12-29T04:56:50;13.47;;;7.63;;
41865;SDS011;27539;43.222;27.558;2023-12-29T04:59:16;17.63;;;6.07;;
41865;SDS011;27539;43.222;27.558;2023-12-29T05:01:41;10.13;;;6.83;;
41865;SDS011;27539;43.222;27.558;2023-12-29T05:04:07;10.80;;;6.60;;
41865;SDS011;27539;43.222;27.558;2023-12-29T05:06:32;9.27;;;6.37;;
41865;SDS011;27539;43.222;27.558;2023-12-29T05:08:58;10.67;;;6.37;;
41865;SDS011;27539;43.222;27.558;2023-12-29T05:11:24;13.37;;;7.07;;
41865;SDS011;27539;43.222;27.558;2023-12-29T05:13:49;12.67;;;6.27;;
41865;SDS011;27539;43.222;27.558;2023-12-29T05:16:15;10.30;;;5.63;;
41865;SDS011;27539;43.222;27.558;2023-12-29T05:18:41;7.90;;;5.63;;
41865;SDS011;27539;43.222;27.558;2023-12-29T05:21:13;8.43;;;6.20;;
41865;SDS011;27539;43.222;27.558;2023-12-29T05:23:58;8.77;;;6.85;;
41865;SDS011;27539;43.222;27.558;2023-12-29T05:26:24;10.47;;;6.43;;
41865;SDS011;27539;43.222;27.558;2023-12-29T05:28:50;10.40;;;6.20;;
41865;SDS011;27539;43.222;27.558;2023-12-29T05:31:16;13.40;;;7.33;;
41865;SDS011;27539;43.222;27.558;2023-12-29T05:33:41;10.77;;;6.33;;
41865;SDS011;27539;43.222;27.558;2023-12-29T05:39:29;9.73;;;6.70;;
41865;SDS011;27539;43.222;27.558;2023-12-29T05:45:09;9.50;;;7.65;;
41865;SDS011;27539;43.222;27.558;2023-12-29T05:47:34;14.27;;;8.13;;
41865;SDS011;27539;43.222;27.558;2023-12-29T05:50:00;11.80;;;8.43;;
41865;SDS011;27539;43.222;27.558;2023-12-29T05:52:25;24.17;;;13.47;;
41865;SDS011;27539;43.222;27.558;2023-12-29T05:54:51;25.77;;;16.23;;
41865;SDS011;27539;43.222;27.558;2023-12-29T05:57:18;21.20;;;13.50;;
41865;SDS011;27539;43.222;27.558;2023-12-29T06:02:09;9.48;;;7.47;;
41865;SDS011;27539;43.222;27.558;2023-12-29T06:04:34;10.13;;;6.90;;
41865;SDS011;27539;43.222;27.558;2023-12-29T06:07:00;6.47;;;5.20;;
41865;SDS011;27539;43.222;27.558;2023-12-29T06:09:25;11.37;;;7.13;;
41865;SDS011;27539;43.222;27.558;2023-12-29T06:11:51;9.10;;;7.07;;
41865;SDS011;27539;43.222;27.558;2023-12-29T06:14:17;14.87;;;6.30;;
41865;SDS011;27539;43.222;27.558;2023-12-29T06:16:42;9.90;;;6.73;;
41865;SDS011;27539;43.222;27.558;2023-12-29T06:19:08;13.07;;;6.83;;
41865;SDS011;27539;43.222;27.558;2023-12-29T06:21:39;8.10;;;6.05;;
41865;SDS011;27539;43.222;27.558;2023-12-29T06:24:14;9.52;;;6.63;;
41865;SDS011;27539;43.222;27.558;2023-12-29T06:26:40;16.43;;;10.83;;
41865;SDS011;27539;43.222;27.558;2023-12-29T06:29:08;17.25;;;10.55;;
41865;SDS011;27539;43.222;27.558;2023-12-29T06:31:40;15.98;;;8.85;;
41865;SDS011;27539;43.222;27.558;2023-12-29T06:34:09;11.23;;;7.00;;
41865;SDS011;27539;43.222;27.558;2023-12-29T06:36:35;11.07;;;5.77;;
41865;SDS011;27539;43.222;27.558;2023-12-29T06:39:00;7.00;;;4.87;;
41865;SDS011;27539;43.222;27.558;2023-12-29T06:41:26;10.97;;;5.87;;
41865;SDS011;27539;43.222;27.558;2023-12-29T06:43:51;10.50;;;6.43;;
41865;SDS011;27539;43.222;27.558;2023-12-29T06:46:17;10.30;;;7.00;;
41865;SDS011;27539;43.222;27.558;2023-12-29T06:48:42;20.17;;;11.93;;
41865;SDS011;27539;43.222;27.558;2023-12-29T06:54:30;11.77;;;6.97;;
41865;SDS011;27539;43.222;27.558;2023-12-29T06:56:55;8.63;;;5.93;;
41865;SDS011;27539;43.222;27.558;2023-12-29T06:59:21;15.17;;;10.53;;
41865;SDS011;27539;43.222;27.558;2023-12-29T07:01:47;10.73;;;7.20;;
41865;SDS011;27539;43.222;27.558;2023-12-29T07:04:13;11.93;;;6.23;;
41865;SDS011;27539;43.222;27.558;2023-12-29T07:06:39;9.47;;;7.33;;
41865;SDS011;27539;43.222;27.558;2023-12-29T07:09:04;10.27;;;6.43;;
41865;SDS011;27539;43.222;27.558;2023-12-29T07:11:30;5.83;;;4.37;;
41865;SDS011;27539;43.222;27.558;2023-12-29T07:13:56;6.87;;;4.97;;
41865;SDS011;27539;43.222;27.558;2023-12-29T07:16:22;7.53;;;4.60;;
41865;SDS011;27539;43.222;27.558;2023-12-29T07:18:47;6.50;;;5.00;;
41865;SDS011;27539;43.222;27.558;2023-12-29T07:21:14;6.70;;;5.27;;
41865;SDS011;27539;43.222;27.558;2023-12-29T07:23:40;6.65;;;4.55;;
41865;SDS011;27539;43.222;27.558;2023-12-29T07:26:06;6.55;;;4.32;;
41865;SDS011;27539;43.222;27.558;2023-12-29T07:28:32;4.40;;;3.58;;
41865;SDS011;27539;43.222;27.558;2023-12-29T07:30:57;9.23;;;4.37;;
41865;SDS011;27539;43.222;27.558;2023-12-29T07:33:23;6.10;;;4.07;;
41865;SDS011;27539;43.222;27.558;2023-12-29T07:35:49;6.43;;;4.10;;
41865;SDS011;27539;43.222;27.558;2023-12-29T07:38:15;7.10;;;4.63;;
41865;SDS011;27539;43.222;27.558;2023-12-29T07:40:41;5.05;;;4.15;;
41865;SDS011;27539;43.222;27.558;2023-12-29T07:43:07;7.20;;;4.13;;
41865;SDS011;27539;43.222;27.558;2023-12-29T07:45:33;6.55;;;4.20;;
41865;SDS011;27539;43.222;27.558;2023-12-29T07:47:58;8.10;;;4.53;;
41865;SDS011;27539;43.222;27.558;2023-12-29T07:50:24;14.73;;;4.73;;
41865;SDS011;27539;43.222;27.558;2023-12-29T07:52:49;5.65;;;3.67;;
41865;SDS011;27539;43.222;27.558;2023-12-29T07:55:15;5.67;;;4.10;;
41865;SDS011;27539;43.222;27.558;2023-12-29T07:57:43;6.22;;;4.05;;
41865;SDS011;27539;43.222;27.558;2023-12-29T08:00:09;6.15;;;3.58;;
41865;SDS011;27539;43.222;27.558;2023-12-29T08:02:35;6.78;;;3.63;;
41865;SDS011;27539;43.222;27.558;2023-12-29T08:05:01;7.15;;;3.67;;
41865;SDS011;27539;43.222;27.558;2023-12-29T08:07:27;8.70;;;4.60;;
41865;SDS011;27539;43.222;27.558;2023-12-29T08:09:53;9.23;;;4.18;;
41865;SDS011;27539;43.222;27.558;2023-12-29T08:12:18;4.75;;;3.50;;
41865;SDS011;27539;43.222;27.558;2023-12-29T08:14:44;6.22;;;3.30;;
41865;SDS011;27539;43.222;27.558;2023-12-29T08:17:09;4.93;;;3.55;;
41865;SDS011;27539;43.222;27.558;2023-12-29T08:19:36;7.78;;;3.58;;
41865;SDS011;27539;43.222;27.558;2023-12-29T08:22:01;5.38;;;3.53;;
41865;SDS011;27539;43.222;27.558;2023-12-29T08:24:27;7.78;;;4.65;;
41865;SDS011;27539;43.222;27.558;2023-12-29T08:26:53;6.22;;;3.92;;
41865;SDS011;27539;43.222;27.558;2023-12-29T08:29:18;5.07;;;4.03;;
41865;SDS011;27539;43.222;27.558;2023-12-29T08:31:44;6.50;;;3.75;;
41865;SDS011;27539;43.222;27.558;2023-12-29T08:34:10;6.22;;;4.20;;
41865;SDS011;27539;43.222;27.558;2023-12-29T08:36:36;4.47;;;3.20;;
41865;SDS011;27539;43.222;27.558;2023-12-29T08:39:02;5.93;;;3.25;;
41865;SDS011;27539;43.222;27.558;2023-12-29T08:41:27;5.53;;;2.90;;
41865;SDS011;27539;43.222;27.558;2023-12-29T08:43:53;12.02;;;3.70;;
41865;SDS011;27539;43.222;27.558;2023-12-29T08:46:19;6.07;;;3.63;;
41865;SDS011;27539;43.222;27.558;2023-12-29T08:48:45;3.08;;;2.78;;
41865;SDS011;27539;43.222;27.558;2023-12-29T08:51:11;6.43;;;3.08;;
41865;SDS011;27539;43.222;27.558;2023-12-29T08:53:36;5.90;;;3.33;;
41865;SDS011;27539;43.222;27.558;2023-12-29T08:56:02;9.65;;;3.45;;
41865;SDS011;27539;43.222;27.558;2023-12-29T08:58:28;4.97;;;3.22;;
41865;SDS011;27539;43.222;27.558;2023-12-29T09:00:54;2.88;;;2.30;;
41865;SDS011;27539;43.222;27.558;2023-12-29T09:03:20;3.00;;;1.95;;
41865;SDS011;27539;43.222;27.558;2023-12-29T09:05:46;2.63;;;2.42;;
41865;SDS011;27539;43.222;27.558;2023-12-29T09:08:11;4.35;;;2.75;;
41865;SDS011;27539;43.222;27.558;2023-12-29T09:10:37;2.65;;;2.45;;
41865;SDS011;27539;43.222;27.558;2023-12-29T09:13:03;1.83;;;1.73;;
41865;SDS011;27539;43.222;27.558;2023-12-29T09:15:29;7.40;;;2.83;;
41865;SDS011;27539;43.222;27.558;2023-12-29T09:17:55;4.72;;;2.63;;
41865;SDS011;27539;43.222;27.558;2023-12-29T09:20:20;5.40;;;2.38;;
41865;SDS011;27539;43.222;27.558;2023-12-29T09:22:46;7.00;;;4.30;;
41865;SDS011;27539;43.222;27.558;2023-12-29T09:25:11;33.38;;;13.18;;
41865;SDS011;27539;43.222;27.558;2023-12-29T09:27:37;58.78;;;24.77;;
41865;SDS011;27539;43.222;27.558;2023-12-29T09:30:03;22.60;;;8.13;;
41865;SDS011;27539;43.222;27.558;2023-12-29T09:32:30;18.42;;;9.95;;
41865;SDS011;27539;43.222;27.558;2023-12-29T09:34:55;6.22;;;4.47;;
41865;SDS011;27539;43.222;27.558;2023-12-29T09:37:21;7.45;;;2.97;;
41865;SDS011;27539;43.222;27.558;2023-12-29T09:39:47;2.83;;;2.17;;
41865;SDS011;27539;43.222;27.558;2023-12-29T09:42:16;3.63;;;2.58;;
41865;SDS011;27539;43.222;27.558;2023-12-29T09:44:49;4.20;;;2.58;;
41865;SDS011;27539;43.222;27.558;2023-12-29T09:47:16;3.90;;;2.42;;
41865;SDS011;27539;43.222;27.558;2023-12-29T09:49:48;6.65;;;4.18;;
41865;SDS011;27539;43.222;27.558;2023-12-29T09:52:14;4.15;;;3.10;;
41865;SDS011;27539;43.222;27.558;2023-12-29T09:54:42;4.45;;;2.60;;
41865;SDS011;27539;43.222;27.558;2023-12-29T09:57:08;3.40;;;2.05;;
41865;SDS011;27539;43.222;27.558;2023-12-29T09:59:34;6.97;;;1.75;;
41865;SDS011;27539;43.222;27.558;2023-12-29T10:02:11;2.90;;;1.42;;
41865;SDS011;27539;43.222;27.558;2023-12-29T10:04:41;2.45;;;1.60;;
41865;SDS011;27539;43.222;27.558;2023-12-29T10:07:06;2.88;;;1.95;;
41865;SDS011;27539;43.222;27.558;2023-12-29T10:09:36;1.75;;;1.65;;
41865;SDS011;27539;43.222;27.558;2023-12-29T10:17:03;2.28;;;1.58;;
41865;SDS011;27539;43.222;27.558;2023-12-29T10:19:41;1.45;;;1.35;;
41865;SDS011;27539;43.222;27.558;2023-12-29T10:22:21;2.50;;;1.70;;
41865;SDS011;27539;43.222;27.558;2023-12-29T10:24:52;2.55;;;1.95;;
41865;SDS011;27539;43.222;27.558;2023-12-29T10:27:18;5.20;;;1.70;;
41865;SDS011;27539;43.222;27.558;2023-12-29T10:29:44;2.25;;;1.83;;
41865;SDS011;27539;43.222;27.558;2023-12-29T10:32:09;2.67;;;1.50;;
41865;SDS011;27539;43.222;27.558;2023-12-29T10:34:35;2.05;;;1.73;;
41865;SDS011;27539;43.222;27.558;2023-12-29T10:37:01;3.22;;;1.92;;
41865;SDS011;27539;43.222;27.558;2023-12-29T10:39:37;4.03;;;2.22;;
41865;SDS011;27539;43.222;27.558;2023-12-29T10:42:03;2.00;;;1.70;;
41865;SDS011;27539;43.222;27.558;2023-12-29T10:44:31;3.85;;;2.53;;
41865;SDS011;27539;43.222;27.558;2023-12-29T10:46:57;2.60;;;2.00;;
41865;SDS011;27539;43.222;27.558;2023-12-29T10:49:22;2.83;;;1.92;;
41865;SDS011;27539;43.222;27.558;2023-12-29T10:51:48;14.88;;;2.13;;
41865;SDS011;27539;43.222;27.558;2023-12-29T10:54:23;1.67;;;1.25;;
41865;SDS011;27539;43.222;27.558;2023-12-29T10:57:01;2.45;;;1.90;;
41865;SDS011;27539;43.222;27.558;2023-12-29T10:59:28;3.17;;;1.63;;
41865;SDS011;27539;43.222;27.558;2023-12-29T11:01:54;1.85;;;1.40;;
41865;SDS011;27539;43.222;27.558;2023-12-29T11:04:21;2.33;;;1.73;;
41865;SDS011;27539;43.222;27.558;2023-12-29T11:06:48;1.52;;;1.10;;
41865;SDS011;27539;43.222;27.558;2023-12-29T11:11:58;1.83;;;1.50;;
41865;SDS011;27539;43.222;27.558;2023-12-29T11:14:25;1.83;;;1.40;;
41865;SDS011;27539;43.222;27.558;2023-12-29T11:16:54;2.28;;;1.60;;
41865;SDS011;27539;43.222;27.558;2023-12-29T11:21:46;2.15;;;1.52;;
41865;SDS011;27539;43.222;27.558;2023-12-29T11:24:14;1.77;;;1.25;;
41865;SDS011;27539;43.222;27.558;2023-12-29T11:26:39;1.45;;;1.23;;
41865;SDS011;27539;43.222;27.558;2023-12-29T11:29:07;1.55;;;1.42;;
41865;SDS011;27539;43.222;27.558;2023-12-29T11:31:33;1.60;;;1.15;;
41865;SDS011;27539;43.222;27.558;2023-12-29T11:34:10;2.03;;;0.80;;
41865;SDS011;27539;43.222;27.558;2023-12-29T11:36:40;1.45;;;1.35;;
41865;SDS011;27539;43.222;27.558;2023-12-29T11:39:16;2.00;;;1.42;;
41865;SDS011;27539;43.222;27.558;2023-12-29T11:42:13;5.68;;;1.45;;
41865;SDS011;27539;43.222;27.558;2023-12-29T11:44:44;2.15;;;1.13;;
41865;SDS011;27539;43.222;27.558;2023-12-29T11:50:02;2.53;;;1.67;;
41865;SDS011;27539;43.222;27.558;2023-12-29T11:52:38;1.83;;;1.40;;
41865;SDS011;27539;43.222;27.558;2023-12-29T11:55:11;3.10;;;1.50;;
41865;SDS011;27539;43.222;27.558;2023-12-29T11:57:38;2.97;;;1.77;;
41865;SDS011;27539;43.222;27.558;2023-12-29T12:00:06;1.15;;;0.98;;
41865;SDS011;27539;43.222;27.558;2023-12-29T12:02:32;2.27;;;1.63;;
41865;SDS011;27539;43.222;27.558;2023-12-29T12:04:57;1.30;;;1.20;;
41865;SDS011;27539;43.222;27.558;2023-12-29T12:09:49;1.58;;;0.90;;
41865;SDS011;27539;43.222;27.558;2023-12-29T12:12:37;0.90;;;0.90;;
41865;SDS011;27539;43.222;27.558;2023-12-29T12:18:10;1.50;;;1.38;;
41865;SDS011;27539;43.222;27.558;2023-12-29T12:20:36;1.95;;;1.70;;
41865;SDS011;27539;43.222;27.558;2023-12-29T12:25:45;1.33;;;1.23;;
41865;SDS011;27539;43.222;27.558;2023-12-29T12:28:11;2.50;;;1.10;;
41865;SDS011;27539;43.222;27.558;2023-12-29T12:30:40;1.05;;;1.05;;
41865;SDS011;27539;43.222;27.558;2023-12-29T12:33:05;3.20;;;1.20;;
41865;SDS011;27539;43.222;27.558;2023-12-29T12:35:31;1.55;;;1.20;;
41865;SDS011;27539;43.222;27.558;2023-12-29T12:38:07;1.35;;;1.25;;
41865;SDS011;27539;43.222;27.558;2023-12-29T12:40:33;1.35;;;1.25;;
41865;SDS011;27539;43.222;27.558;2023-12-29T12:42:59;1.58;;;1.27;;
41865;SDS011;27539;43.222;27.558;2023-12-29T12:45:24;1.38;;;1.17;;
41865;SDS011;27539;43.222;27.558;2023-12-29T12:47:54;1.42;;;1.00;;
41865;SDS011;27539;43.222;27.558;2023-12-29T12:50:25;1.73;;;1.63;;
41865;SDS011;27539;43.222;27.558;2023-12-29T12:52:51;2.35;;;1.42;;
41865;SDS011;27539;43.222;27.558;2023-12-29T12:55:17;1.70;;;1.40;;
41865;SDS011;27539;43.222;27.558;2023-12-29T12:57:43;3.25;;;1.40;;
41865;SDS011;27539;43.222;27.558;2023-12-29T13:00:10;5.30;;;2.28;;
41865;SDS011;27539;43.222;27.558;2023-12-29T13:02:36;4.97;;;1.87;;
41865;SDS011;27539;43.222;27.558;2023-12-29T13:05:02;3.60;;;2.75;;
41865;SDS011;27539;43.222;27.558;2023-12-29T13:07:32;3.88;;;2.42;;
41865;SDS011;27539;43.222;27.558;2023-12-29T13:09:59;2.22;;;1.80;;
41865;SDS011;27539;43.222;27.558;2023-12-29T13:12:27;2.40;;;1.45;;
41865;SDS011;27539;43.222;27.558;2023-12-29T13:14:52;2.05;;;1.20;;
41865;SDS011;27539;43.222;27.558;2023-12-29T13:17:18;1.58;;;1.48;;
41865;SDS011;27539;43.222;27.558;2023-12-29T13:19:54;2.65;;;2.10;;
41865;SDS011;27539;43.222;27.558;2023-12-29T13:22:22;1.77;;;1.45;;
41865;SDS011;27539;43.222;27.558;2023-12-29T13:24:48;2.60;;;1.73;;
41865;SDS011;27539;43.222;27.558;2023-12-29T13:27:14;1.77;;;1.27;;
41865;SDS011;27539;43.222;27.558;2023-12-29T13:29:40;2.95;;;1.52;;
41865;SDS011;27539;43.222;27.558;2023-12-29T13:42:40;6.32;;;3.33;;
41865;SDS011;27539;43.222;27.558;2023-12-29T13:45:09;10.90;;;6.22;;
41865;SDS011;27539;43.222;27.558;2023-12-29T13:47:36;14.35;;;7.72;;
41865;SDS011;27539;43.222;27.558;2023-12-29T13:50:03;13.85;;;8.27;;
41865;SDS011;27539;43.222;27.558;2023-12-29T13:52:30;13.70;;;6.93;;
41865;SDS011;27539;43.222;27.558;2023-12-29T13:54:57;14.15;;;7.22;;
41865;SDS011;27539;43.222;27.558;2023-12-29T13:57:29;13.35;;;7.22;;
41865;SDS011;27539;43.222;27.558;2023-12-29T14:00:14;12.35;;;7.07;;
41865;SDS011;27539;43.222;27.558;2023-12-29T14:02:40;8.88;;;5.43;;
41865;SDS011;27539;43.222;27.558;2023-12-29T14:05:18;13.07;;;8.68;;
41865;SDS011;27539;43.222;27.558;2023-12-29T14:07:46;22.55;;;11.05;;
41865;SDS011;27539;43.222;27.558;2023-12-29T14:10:17;21.25;;;10.73;;
41865;SDS011;27539;43.222;27.558;2023-12-29T14:12:43;15.73;;;7.53;;
41865;SDS011;27539;43.222;27.558;2023-12-29T14:15:09;8.10;;;4.65;;
41865;SDS011;27539;43.222;27.558;2023-12-29T14:17:35;39.95;;;17.90;;
41865;SDS011;27539;43.222;27.558;2023-12-29T14:20:03;101.55;;;36.42;;
41865;SDS011;27539;43.222;27.558;2023-12-29T14:22:31;132.27;;;55.17;;
41865;SDS011;27539;43.222;27.558;2023-12-29T14:27:25;93.53;;;39.30;;
41865;SDS011;27539;43.222;27.558;2023-12-29T14:29:51;59.72;;;24.90;;
41865;SDS011;27539;43.222;27.558;2023-12-29T14:32:16;30.63;;;15.02;;
41865;SDS011;27539;43.222;27.558;2023-12-29T14:34:42;27.52;;;13.57;;
41865;SDS011;27539;43.222;27.558;2023-12-29T14:37:08;36.00;;;17.45;;
41865;SDS011;27539;43.222;27.558;2023-12-29T14:39:33;30.85;;;15.00;;
41865;SDS011;27539;43.222;27.558;2023-12-29T14:41:59;33.42;;;15.93;;
41865;SDS011;27539;43.222;27.558;2023-12-29T14:44:24;32.03;;;14.20;;
41865;SDS011;27539;43.222;27.558;2023-12-29T14:46:50;50.47;;;18.92;;
41865;SDS011;27539;43.222;27.558;2023-12-29T14:49:15;21.15;;;9.25;;
41865;SDS011;27539;43.222;27.558;2023-12-29T14:51:41;13.10;;;4.55;;
41865;SDS011;27539;43.222;27.558;2023-12-29T14:54:07;14.60;;;6.90;;
41865;SDS011;27539;43.222;27.558;2023-12-29T14:56:32;9.30;;;3.95;;
41865;SDS011;27539;43.222;27.558;2023-12-29T14:58:58;7.75;;;3.50;;
41865;SDS011;27539;43.222;27.558;2023-12-29T15:01:24;7.70;;;3.25;;
41865;SDS011;27539;43.222;27.558;2023-12-29T15:03:51;2.28;;;1.75;;
41865;SDS011;27539;43.222;27.558;2023-12-29T15:06:17;13.60;;;7.78;;
41865;SDS011;27539;43.222;27.558;2023-12-29T15:08:42;20.48;;;11.07;;
41865;SDS011;27539;43.222;27.558;2023-12-29T15:11:08;15.35;;;11.25;;
41865;SDS011;27539;43.222;27.558;2023-12-29T15:13:34;11.95;;;8.77;;
41865;SDS011;27539;43.222;27.558;2023-12-29T15:16:00;7.60;;;5.47;;
41865;SDS011;27539;43.222;27.558;2023-12-29T15:18:27;18.60;;;9.93;;
41865;SDS011;27539;43.222;27.558;2023-12-29T15:20:55;17.08;;;9.32;;